sensor_id;sensor_type;location;lat;lon;timestamp;temperature;humidity
40964;DHT22;26693;51.168;4.138;2022-08-05T00:00:11;22.80;99.90
40964;DHT22;26693;51.168;4.138;2022-08-05T00:01:12;22.80;99.90
40964;DHT22;26693;51.168;4.138;2022-08-05T00:02:13;22.70;99.90
40964;DHT22;26693;51.168;4.138;2022-08-05T00:03:14;22.70;99.90
40964;DHT22;26693;51.168;4.138;2022-08-05T00:04:15;22.70;99.90
40964;DHT22;26693;51.168;4.138;2022-08-05T00:05:16;22.70;99.90
40964;DHT22;26693;51.168;4.138;2022-08-05T00:06:17;22.80;99.90
40964;DHT22;26693;51.168;4.138;2022-08-05T00:07:17;22.80;99.90
40964;DHT22;26693;51.168;4.138;2022-08-05T00:08:18;22.80;99.90
40964;DHT22;26693;51.168;4.138;2022-08-05T00:09:19;22.60;99.90
40964;DHT22;26693;51.168;4.138;2022-08-05T00:10:19;22.70;99.90
40964;DHT22;26693;51.168;4.138;2022-08-05T00:11:22;22.70;99.90
40964;DHT22;26693;51.168;4.138;2022-08-05T00:12:22;22.70;99.90
40964;DHT22;26693;51.168;4.138;2022-08-05T00:13:23;22.70;99.90
40964;DHT22;26693;51.168;4.138;2022-08-05T00:14:23;22.80;99.90
40964;DHT22;26693;51.168;4.138;2022-08-05T00:15:24;22.80;99.90
40964;DHT22;26693;51.168;4.138;2022-08-05T00:16:24;22.90;99.90
40964;DHT22;26693;51.168;4.138;2022-08-05T00:17:25;23.00;99.90
40964;DHT22;26693;51.168;4.138;2022-08-05T00:18:25;22.90;99.90
40964;DHT22;26693;51.168;4.138;2022-08-05T00:19:26;22.90;99.90
40964;DHT22;26693;51.168;4.138;2022-08-05T00:20:27;22.90;99.90
40964;DHT22;26693;51.168;4.138;2022-08-05T00:21:27;22.90;99.90
40964;DHT22;26693;51.168;4.138;2022-08-05T00:22:28;22.90;99.90
40964;DHT22;26693;51.168;4.138;2022-08-05T00:23:28;22.90;99.90
40964;DHT22;26693;51.168;4.138;2022-08-05T00:24:29;23.00;99.90
40964;DHT22;26693;51.168;4.138;2022-08-05T00:25:29;23.00;99.90
40964;DHT22;26693;51.168;4.138;2022-08-05T00:26:30;23.00;99.90
40964;DHT22;26693;51.168;4.138;2022-08-05T00:27:30;23.00;99.90
40964;DHT22;26693;51.168;4.138;2022-08-05T00:28:31;23.10;99.90
40964;DHT22;26693;51.168;4.138;2022-08-05T00:29:31;23.10;99.90
40964;DHT22;26693;51.168;4.138;2022-08-05T00:30:32;23.10;99.90
40964;DHT22;26693;51.168;4.138;2022-08-05T00:31:32;23.10;99.90
40964;DHT22;26693;51.168;4.138;2022-08-05T00:32:33;23.20;99.90
40964;DHT22;26693;51.168;4.138;2022-08-05T00:33:34;23.10;99.90
40964;DHT22;26693;51.168;4.138;2022-08-05T00:34:34;23.00;99.90
40964;DHT22;26693;51.168;4.138;2022-08-05T00:35:35;23.00;99.90
40964;DHT22;26693;51.168;4.138;2022-08-05T00:36:35;23.10;99.90
40964;DHT22;26693;51.168;4.138;2022-08-05T00:37:36;23.00;99.90
40964;DHT22;26693;51.168;4.138;2022-08-05T00:38:36;22.90;99.90
40964;DHT22;26693;51.168;4.138;2022-08-05T00:39:39;22.90;99.90
40964;DHT22;26693;51.168;4.138;2022-08-05T00:40:48;23.00;99.90
40964;DHT22;26693;51.168;4.138;2022-08-05T00:41:49;23.00;99.90
40964;DHT22;26693;51.168;4.138;2022-08-05T00:42:50;23.00;99.90
40964;DHT22;26693;51.168;4.138;2022-08-05T00:43:50;23.00;99.90
40964;DHT22;26693;51.168;4.138;2022-08-05T00:44:51;22.90;99.90
40964;DHT22;26693;51.168;4.138;2022-08-05T00:45:51;23.00;99.90
40964;DHT22;26693;51.168;4.138;2022-08-05T00:46:52;23.10;99.90
40964;DHT22;26693;51.168;4.138;2022-08-05T00:47:53;23.10;99.90
40964;DHT22;26693;51.168;4.138;2022-08-05T00:48:53;22.90;99.90
40964;DHT22;26693;51.168;4.138;2022-08-05T00:49:54;22.90;99.90
40964;DHT22;26693;51.168;4.138;2022-08-05T00:50:54;22.90;99.90
40964;DHT22;26693;51.168;4.138;2022-08-05T00:51:55;22.90;99.90
40964;DHT22;26693;51.168;4.138;2022-08-05T00:52:55;22.90;99.90
40964;DHT22;26693;51.168;4.138;2022-08-05T00:53:56;22.90;99.90
40964;DHT22;26693;51.168;4.138;2022-08-05T00:54:56;23.00;99.90
40964;DHT22;26693;51.168;4.138;2022-08-05T00:55:57;23.00;99.90
40964;DHT22;26693;51.168;4.138;2022-08-05T00:56:57;23.10;99.90
40964;DHT22;26693;51.168;4.138;2022-08-05T00:57:58;23.00;99.90
40964;DHT22;26693;51.168;4.138;2022-08-05T00:58:58;23.10;99.90
40964;DHT22;26693;51.168;4.138;2022-08-05T00:59:59;23.00;99.90
40964;DHT22;26693;51.168;4.138;2022-08-05T01:01:00;22.70;99.90
40964;DHT22;26693;51.168;4.138;2022-08-05T01:02:00;22.50;99.90
40964;DHT22;26693;51.168;4.138;2022-08-05T01:03:01;22.50;99.90
40964;DHT22;26693;51.168;4.138;2022-08-05T01:04:01;22.70;99.90
40964;DHT22;26693;51.168;4.138;2022-08-05T01:05:02;22.90;99.90
40964;DHT22;26693;51.168;4.138;2022-08-05T01:06:03;22.90;99.90
40964;DHT22;26693;51.168;4.138;2022-08-05T01:07:04;22.90;99.90
40964;DHT22;26693;51.168;4.138;2022-08-05T01:08:04;22.80;99.90
40964;DHT22;26693;51.168;4.138;2022-08-05T01:09:05;22.90;99.90
40964;DHT22;26693;51.168;4.138;2022-08-05T01:10:06;23.00;99.90
40964;DHT22;26693;51.168;4.138;2022-08-05T01:11:10;23.00;99.90
40964;DHT22;26693;51.168;4.138;2022-08-05T01:12:11;22.90;99.90
40964;DHT22;26693;51.168;4.138;2022-08-05T01:13:15;22.90;99.90
40964;DHT22;26693;51.168;4.138;2022-08-05T01:15:28;22.80;99.90
40964;DHT22;26693;51.168;4.138;2022-08-05T01:16:46;22.80;99.90
40964;DHT22;26693;51.168;4.138;2022-08-05T01:17:52;22.70;99.90
40964;DHT22;26693;51.168;4.138;2022-08-05T01:18:57;22.80;99.90
40964;DHT22;26693;51.168;4.138;2022-08-05T01:20:08;22.70;99.90
40964;DHT22;26693;51.168;4.138;2022-08-05T01:21:17;22.80;99.90
40964;DHT22;26693;51.168;4.138;2022-08-05T01:24:34;22.50;99.90
40964;DHT22;26693;51.168;4.138;2022-08-05T01:29:22;21.90;99.90
40964;DHT22;26693;51.168;4.138;2022-08-05T01:30:25;21.90;99.90
40964;DHT22;26693;51.168;4.138;2022-08-05T01:31:28;22.10;99.90
40964;DHT22;26693;51.168;4.138;2022-08-05T01:32:32;22.30;99.90
40964;DHT22;26693;51.168;4.138;2022-08-05T01:33:37;22.30;99.90
40964;DHT22;26693;51.168;4.138;2022-08-05T01:36:10;22.40;99.90
40964;DHT22;26693;51.168;4.138;2022-08-05T01:37:21;22.60;99.90
40964;DHT22;26693;51.168;4.138;2022-08-05T01:38:24;22.60;99.90
40964;DHT22;26693;51.168;4.138;2022-08-05T01:39:25;22.50;99.90
40964;DHT22;26693;51.168;4.138;2022-08-05T01:40:27;22.60;99.90
40964;DHT22;26693;51.168;4.138;2022-08-05T01:41:30;22.50;99.90
40964;DHT22;26693;51.168;4.138;2022-08-05T01:42:31;22.50;99.90
40964;DHT22;26693;51.168;4.138;2022-08-05T01:43:33;22.50;99.90
40964;DHT22;26693;51.168;4.138;2022-08-05T01:44:35;22.50;99.90
40964;DHT22;26693;51.168;4.138;2022-08-05T01:45:36;22.60;99.90
40964;DHT22;26693;51.168;4.138;2022-08-05T01:46:37;22.60;99.90
40964;DHT22;26693;51.168;4.138;2022-08-05T01:47:39;22.60;99.90
40964;DHT22;26693;51.168;4.138;2022-08-05T01:48:40;22.60;99.90
40964;DHT22;26693;51.168;4.138;2022-08-05T01:49:40;22.40;99.90
40964;DHT22;26693;51.168;4.138;2022-08-05T01:50:42;22.30;99.90
40964;DHT22;26693;51.168;4.138;2022-08-05T01:51:42;22.30;99.90
40964;DHT22;26693;51.168;4.138;2022-08-05T01:52:45;22.30;99.90
40964;DHT22;26693;51.168;4.138;2022-08-05T01:53:47;22.20;99.90
40964;DHT22;26693;51.168;4.138;2022-08-05T01:54:53;22.00;99.90
40964;DHT22;26693;51.168;4.138;2022-08-05T01:55:55;22.00;99.90
40964;DHT22;26693;51.168;4.138;2022-08-05T01:56:57;21.60;99.90
40964;DHT22;26693;51.168;4.138;2022-08-05T01:58:00;21.60;99.90
40964;DHT22;26693;51.168;4.138;2022-08-05T01:59:02;21.50;99.90
40964;DHT22;26693;51.168;4.138;2022-08-05T02:00:04;21.40;99.90
40964;DHT22;26693;51.168;4.138;2022-08-05T02:01:05;21.40;99.90
40964;DHT22;26693;51.168;4.138;2022-08-05T02:02:06;21.40;99.90
40964;DHT22;26693;51.168;4.138;2022-08-05T02:04:28;21.40;99.90
40964;DHT22;26693;51.168;4.138;2022-08-05T02:05:33;21.80;99.90
40964;DHT22;26693;51.168;4.138;2022-08-05T02:06:35;21.70;99.90
40964;DHT22;26693;51.168;4.138;2022-08-05T02:07:35;21.50;99.90
40964;DHT22;26693;51.168;4.138;2022-08-05T02:08:36;21.50;99.90
40964;DHT22;26693;51.168;4.138;2022-08-05T02:09:37;21.40;99.90
40964;DHT22;26693;51.168;4.138;2022-08-05T02:10:42;21.50;99.90
40964;DHT22;26693;51.168;4.138;2022-08-05T02:13:04;21.40;99.90
40964;DHT22;26693;51.168;4.138;2022-08-05T02:14:41;21.40;99.90
40964;DHT22;26693;51.168;4.138;2022-08-05T02:15:33;21.50;99.90
40964;DHT22;26693;51.168;4.138;2022-08-05T02:17:40;21.50;99.90
40964;DHT22;26693;51.168;4.138;2022-08-05T02:18:47;21.60;99.90
40964;DHT22;26693;51.168;4.138;2022-08-05T02:19:50;21.90;99.90
40964;DHT22;26693;51.168;4.138;2022-08-05T02:23:14;22.30;99.90
40964;DHT22;26693;51.168;4.138;2022-08-05T02:24:17;22.30;99.90
40964;DHT22;26693;51.168;4.138;2022-08-05T02:25:24;22.30;99.90
40964;DHT22;26693;51.168;4.138;2022-08-05T02:26:32;22.40;99.90
40964;DHT22;26693;51.168;4.138;2022-08-05T02:27:35;22.40;99.90
40964;DHT22;26693;51.168;4.138;2022-08-05T02:28:40;22.30;99.90
40964;DHT22;26693;51.168;4.138;2022-08-05T02:29:41;22.30;99.90
40964;DHT22;26693;51.168;4.138;2022-08-05T02:30:45;22.40;99.90
40964;DHT22;26693;51.168;4.138;2022-08-05T02:31:46;22.40;99.90
40964;DHT22;26693;51.168;4.138;2022-08-05T02:32:49;22.40;99.90
40964;DHT22;26693;51.168;4.138;2022-08-05T02:33:51;22.40;99.90
40964;DHT22;26693;51.168;4.138;2022-08-05T02:34:54;22.50;99.90
40964;DHT22;26693;51.168;4.138;2022-08-05T02:35:55;22.60;99.90
40964;DHT22;26693;51.168;4.138;2022-08-05T02:36:58;22.50;99.90
40964;DHT22;26693;51.168;4.138;2022-08-05T02:38:00;22.50;99.90
40964;DHT22;26693;51.168;4.138;2022-08-05T02:39:02;22.50;99.90
40964;DHT22;26693;51.168;4.138;2022-08-05T02:40:04;22.50;99.90
40964;DHT22;26693;51.168;4.138;2022-08-05T02:41:08;22.50;99.90
40964;DHT22;26693;51.168;4.138;2022-08-05T02:42:09;22.50;99.90
40964;DHT22;26693;51.168;4.138;2022-08-05T02:43:10;22.50;99.90
40964;DHT22;26693;51.168;4.138;2022-08-05T02:44:12;22.50;99.90
40964;DHT22;26693;51.168;4.138;2022-08-05T02:45:13;22.50;99.90
40964;DHT22;26693;51.168;4.138;2022-08-05T02:46:15;22.50;99.90
40964;DHT22;26693;51.168;4.138;2022-08-05T02:47:16;22.50;99.90
40964;DHT22;26693;51.168;4.138;2022-08-05T02:48:17;22.50;99.90
40964;DHT22;26693;51.168;4.138;2022-08-05T02:49:18;22.30;99.90
40964;DHT22;26693;51.168;4.138;2022-08-05T02:50:19;22.20;99.90
40964;DHT22;26693;51.168;4.138;2022-08-05T02:51:21;22.20;99.90
40964;DHT22;26693;51.168;4.138;2022-08-05T02:52:22;22.20;99.90
40964;DHT22;26693;51.168;4.138;2022-08-05T02:53:23;22.30;99.90
40964;DHT22;26693;51.168;4.138;2022-08-05T02:54:23;22.40;99.90
40964;DHT22;26693;51.168;4.138;2022-08-05T02:55:24;22.30;99.90
40964;DHT22;26693;51.168;4.138;2022-08-05T02:56:26;22.30;99.90
40964;DHT22;26693;51.168;4.138;2022-08-05T02:57:27;22.30;99.90
40964;DHT22;26693;51.168;4.138;2022-08-05T02:58:28;22.40;99.90
40964;DHT22;26693;51.168;4.138;2022-08-05T02:59:30;22.40;99.90
40964;DHT22;26693;51.168;4.138;2022-08-05T03:00:31;22.30;99.90
40964;DHT22;26693;51.168;4.138;2022-08-05T03:01:32;22.30;99.90
40964;DHT22;26693;51.168;4.138;2022-08-05T03:02:36;22.20;99.90
40964;DHT22;26693;51.168;4.138;2022-08-05T03:03:40;22.30;99.90
40964;DHT22;26693;51.168;4.138;2022-08-05T03:04:41;22.30;99.90
40964;DHT22;26693;51.168;4.138;2022-08-05T03:05:43;22.30;99.90
40964;DHT22;26693;51.168;4.138;2022-08-05T03:06:44;22.30;99.90
40964;DHT22;26693;51.168;4.138;2022-08-05T03:07:45;22.30;99.90
40964;DHT22;26693;51.168;4.138;2022-08-05T03:08:46;22.30;99.90
40964;DHT22;26693;51.168;4.138;2022-08-05T03:09:46;22.40;99.90
40964;DHT22;26693;51.168;4.138;2022-08-05T03:10:47;22.30;99.90
40964;DHT22;26693;51.168;4.138;2022-08-05T03:11:48;22.40;99.90
40964;DHT22;26693;51.168;4.138;2022-08-05T03:12:50;22.40;99.90
40964;DHT22;26693;51.168;4.138;2022-08-05T03:13:51;22.40;99.90
40964;DHT22;26693;51.168;4.138;2022-08-05T03:14:52;22.40;99.90
40964;DHT22;26693;51.168;4.138;2022-08-05T03:15:52;22.40;99.90
40964;DHT22;26693;51.168;4.138;2022-08-05T03:16:53;22.40;99.90
40964;DHT22;26693;51.168;4.138;2022-08-05T03:17:53;22.40;99.90
40964;DHT22;26693;51.168;4.138;2022-08-05T03:18:58;22.30;99.90
40964;DHT22;26693;51.168;4.138;2022-08-05T03:19:59;21.90;99.90
40964;DHT22;26693;51.168;4.138;2022-08-05T03:20:59;21.80;99.90
40964;DHT22;26693;51.168;4.138;2022-08-05T03:22:00;22.00;99.90
40964;DHT22;26693;51.168;4.138;2022-08-05T03:23:00;21.80;99.90
40964;DHT22;26693;51.168;4.138;2022-08-05T03:24:01;21.80;99.90
40964;DHT22;26693;51.168;4.138;2022-08-05T03:25:02;21.90;99.90
40964;DHT22;26693;51.168;4.138;2022-08-05T03:26:03;22.10;99.90
40964;DHT22;26693;51.168;4.138;2022-08-05T03:27:04;22.20;99.90
40964;DHT22;26693;51.168;4.138;2022-08-05T03:28:05;22.10;99.90
40964;DHT22;26693;51.168;4.138;2022-08-05T03:29:09;22.10;99.90
40964;DHT22;26693;51.168;4.138;2022-08-05T03:30:10;22.20;99.90
40964;DHT22;26693;51.168;4.138;2022-08-05T03:31:10;22.00;99.90
40964;DHT22;26693;51.168;4.138;2022-08-05T03:32:12;22.10;99.90
40964;DHT22;26693;51.168;4.138;2022-08-05T03:33:12;22.20;99.90
40964;DHT22;26693;51.168;4.138;2022-08-05T03:34:13;22.10;99.90
40964;DHT22;26693;51.168;4.138;2022-08-05T03:35:14;22.10;99.90
40964;DHT22;26693;51.168;4.138;2022-08-05T03:36:14;22.10;99.90
40964;DHT22;26693;51.168;4.138;2022-08-05T03:37:15;22.00;99.90
40964;DHT22;26693;51.168;4.138;2022-08-05T03:38:16;21.90;99.90
40964;DHT22;26693;51.168;4.138;2022-08-05T03:39:16;21.90;99.90
40964;DHT22;26693;51.168;4.138;2022-08-05T03:40:17;21.80;99.90
40964;DHT22;26693;51.168;4.138;2022-08-05T03:41:17;21.80;99.90
40964;DHT22;26693;51.168;4.138;2022-08-05T03:42:18;21.90;99.90
40964;DHT22;26693;51.168;4.138;2022-08-05T03:43:18;21.90;99.90
40964;DHT22;26693;51.168;4.138;2022-08-05T03:44:19;22.00;99.90
40964;DHT22;26693;51.168;4.138;2022-08-05T03:45:20;21.90;99.90
40964;DHT22;26693;51.168;4.138;2022-08-05T03:46:21;22.00;99.90
40964;DHT22;26693;51.168;4.138;2022-08-05T03:47:21;21.90;99.90
40964;DHT22;26693;51.168;4.138;2022-08-05T03:48:22;21.80;99.90
40964;DHT22;26693;51.168;4.138;2022-08-05T03:49:22;21.90;99.90
40964;DHT22;26693;51.168;4.138;2022-08-05T03:50:23;21.80;99.90
40964;DHT22;26693;51.168;4.138;2022-08-05T03:51:27;21.80;99.90
40964;DHT22;26693;51.168;4.138;2022-08-05T03:52:29;21.80;99.90
40964;DHT22;26693;51.168;4.138;2022-08-05T03:53:51;21.80;99.90
40964;DHT22;26693;51.168;4.138;2022-08-05T03:55:16;21.80;99.90
40964;DHT22;26693;51.168;4.138;2022-08-05T03:56:24;21.80;99.90
40964;DHT22;26693;51.168;4.138;2022-08-05T03:57:26;22.00;99.90
40964;DHT22;26693;51.168;4.138;2022-08-05T03:58:29;22.00;99.90
40964;DHT22;26693;51.168;4.138;2022-08-05T03:59:32;22.10;99.90
40964;DHT22;26693;51.168;4.138;2022-08-05T04:00:34;22.10;99.90
40964;DHT22;26693;51.168;4.138;2022-08-05T04:01:36;21.80;99.90
40964;DHT22;26693;51.168;4.138;2022-08-05T04:02:39;21.80;99.90
40964;DHT22;26693;51.168;4.138;2022-08-05T04:03:42;21.90;99.90
40964;DHT22;26693;51.168;4.138;2022-08-05T04:04:43;21.90;99.90
40964;DHT22;26693;51.168;4.138;2022-08-05T04:05:44;21.90;99.90
40964;DHT22;26693;51.168;4.138;2022-08-05T04:06:45;21.90;99.90
40964;DHT22;26693;51.168;4.138;2022-08-05T04:07:46;21.90;99.90
40964;DHT22;26693;51.168;4.138;2022-08-05T04:08:46;21.90;99.90
40964;DHT22;26693;51.168;4.138;2022-08-05T04:09:47;21.90;99.90
40964;DHT22;26693;51.168;4.138;2022-08-05T04:10:47;21.70;99.90
40964;DHT22;26693;51.168;4.138;2022-08-05T04:11:49;21.70;99.90
40964;DHT22;26693;51.168;4.138;2022-08-05T04:12:50;21.80;99.90
40964;DHT22;26693;51.168;4.138;2022-08-05T04:13:50;21.80;99.90
40964;DHT22;26693;51.168;4.138;2022-08-05T04:14:51;21.90;99.90
40964;DHT22;26693;51.168;4.138;2022-08-05T04:15:52;21.90;99.90
40964;DHT22;26693;51.168;4.138;2022-08-05T04:16:52;21.80;99.90
40964;DHT22;26693;51.168;4.138;2022-08-05T04:17:53;21.80;99.90
40964;DHT22;26693;51.168;4.138;2022-08-05T04:18:54;21.80;99.90
40964;DHT22;26693;51.168;4.138;2022-08-05T04:19:54;21.70;99.90
40964;DHT22;26693;51.168;4.138;2022-08-05T04:20:55;21.70;99.90
40964;DHT22;26693;51.168;4.138;2022-08-05T04:21:56;21.80;99.90
40964;DHT22;26693;51.168;4.138;2022-08-05T04:22:57;21.70;99.90
40964;DHT22;26693;51.168;4.138;2022-08-05T04:23:57;21.70;99.90
40964;DHT22;26693;51.168;4.138;2022-08-05T04:25:00;21.80;99.90
40964;DHT22;26693;51.168;4.138;2022-08-05T04:26:01;21.80;99.90
40964;DHT22;26693;51.168;4.138;2022-08-05T04:27:02;21.80;99.90
40964;DHT22;26693;51.168;4.138;2022-08-05T04:28:03;21.70;99.90
40964;DHT22;26693;51.168;4.138;2022-08-05T04:29:03;21.70;99.90
40964;DHT22;26693;51.168;4.138;2022-08-05T04:30:04;21.70;99.90
40964;DHT22;26693;51.168;4.138;2022-08-05T04:31:05;21.80;99.90
40964;DHT22;26693;51.168;4.138;2022-08-05T04:32:05;21.80;99.90
40964;DHT22;26693;51.168;4.138;2022-08-05T04:33:07;21.80;99.90
40964;DHT22;26693;51.168;4.138;2022-08-05T04:34:07;21.80;99.90
40964;DHT22;26693;51.168;4.138;2022-08-05T04:35:08;21.70;99.90
40964;DHT22;26693;51.168;4.138;2022-08-05T04:36:08;21.70;99.90
40964;DHT22;26693;51.168;4.138;2022-08-05T04:37:09;21.70;99.90
40964;DHT22;26693;51.168;4.138;2022-08-05T04:38:10;21.70;99.90
40964;DHT22;26693;51.168;4.138;2022-08-05T04:39:11;21.60;99.90
40964;DHT22;26693;51.168;4.138;2022-08-05T04:40:11;21.60;99.90
40964;DHT22;26693;51.168;4.138;2022-08-05T04:41:12;21.60;99.90
40964;DHT22;26693;51.168;4.138;2022-08-05T04:42:12;21.60;99.90
40964;DHT22;26693;51.168;4.138;2022-08-05T04:43:13;21.50;99.90
40964;DHT22;26693;51.168;4.138;2022-08-05T04:44:13;21.40;99.90
40964;DHT22;26693;51.168;4.138;2022-08-05T04:45:14;21.40;99.90
40964;DHT22;26693;51.168;4.138;2022-08-05T04:46:14;21.30;99.90
40964;DHT22;26693;51.168;4.138;2022-08-05T04:47:15;21.30;99.90
40964;DHT22;26693;51.168;4.138;2022-08-05T04:48:15;21.20;99.90
40964;DHT22;26693;51.168;4.138;2022-08-05T04:49:16;21.20;99.90
40964;DHT22;26693;51.168;4.138;2022-08-05T04:50:16;21.20;99.90
40964;DHT22;26693;51.168;4.138;2022-08-05T04:51:18;21.30;99.90
40964;DHT22;26693;51.168;4.138;2022-08-05T04:52:19;21.20;99.90
40964;DHT22;26693;51.168;4.138;2022-08-05T04:53:19;21.30;99.90
40964;DHT22;26693;51.168;4.138;2022-08-05T04:54:20;21.50;99.90
40964;DHT22;26693;51.168;4.138;2022-08-05T04:55:21;21.20;99.90
40964;DHT22;26693;51.168;4.138;2022-08-05T04:56:21;21.30;99.90
40964;DHT22;26693;51.168;4.138;2022-08-05T04:57:22;21.40;99.90
40964;DHT22;26693;51.168;4.138;2022-08-05T04:58:22;21.30;99.90
40964;DHT22;26693;51.168;4.138;2022-08-05T04:59:23;21.30;99.90
40964;DHT22;26693;51.168;4.138;2022-08-05T05:00:23;21.20;99.90
40964;DHT22;26693;51.168;4.138;2022-08-05T05:01:24;21.20;99.90
40964;DHT22;26693;51.168;4.138;2022-08-05T05:02:25;21.20;99.90
40964;DHT22;26693;51.168;4.138;2022-08-05T05:03:26;21.30;99.90
40964;DHT22;26693;51.168;4.138;2022-08-05T05:04:26;21.30;99.90
40964;DHT22;26693;51.168;4.138;2022-08-05T05:05:27;21.40;99.90
40964;DHT22;26693;51.168;4.138;2022-08-05T05:06:28;21.40;99.90
40964;DHT22;26693;51.168;4.138;2022-08-05T05:07:29;21.30;99.90
40964;DHT22;26693;51.168;4.138;2022-08-05T05:08:30;21.30;99.90
40964;DHT22;26693;51.168;4.138;2022-08-05T05:09:30;21.30;99.90
40964;DHT22;26693;51.168;4.138;2022-08-05T05:10:32;21.20;99.90
40964;DHT22;26693;51.168;4.138;2022-08-05T05:11:33;21.20;99.90
40964;DHT22;26693;51.168;4.138;2022-08-05T05:12:33;21.20;99.90
40964;DHT22;26693;51.168;4.138;2022-08-05T05:13:34;21.20;99.90
40964;DHT22;26693;51.168;4.138;2022-08-05T05:14:34;21.00;99.90
40964;DHT22;26693;51.168;4.138;2022-08-05T05:15:35;20.90;99.90
40964;DHT22;26693;51.168;4.138;2022-08-05T05:16:36;20.90;99.90
40964;DHT22;26693;51.168;4.138;2022-08-05T05:17:40;21.00;99.90
40964;DHT22;26693;51.168;4.138;2022-08-05T05:18:41;21.00;99.90
40964;DHT22;26693;51.168;4.138;2022-08-05T05:19:42;21.10;99.90
40964;DHT22;26693;51.168;4.138;2022-08-05T05:20:45;21.20;99.90
40964;DHT22;26693;51.168;4.138;2022-08-05T05:21:45;21.20;99.90
40964;DHT22;26693;51.168;4.138;2022-08-05T05:22:46;21.10;99.90
40964;DHT22;26693;51.168;4.138;2022-08-05T05:23:46;21.20;99.90
40964;DHT22;26693;51.168;4.138;2022-08-05T05:24:47;21.00;99.90
40964;DHT22;26693;51.168;4.138;2022-08-05T05:25:48;21.10;99.90
40964;DHT22;26693;51.168;4.138;2022-08-05T05:26:48;21.10;99.90
40964;DHT22;26693;51.168;4.138;2022-08-05T05:27:49;21.10;99.90
40964;DHT22;26693;51.168;4.138;2022-08-05T05:28:51;21.10;99.90
40964;DHT22;26693;51.168;4.138;2022-08-05T05:29:52;21.20;99.90
40964;DHT22;26693;51.168;4.138;2022-08-05T05:30:52;21.20;99.90
40964;DHT22;26693;51.168;4.138;2022-08-05T05:31:53;21.20;99.90
40964;DHT22;26693;51.168;4.138;2022-08-05T05:33:14;21.20;99.90
40964;DHT22;26693;51.168;4.138;2022-08-05T05:34:14;21.20;99.90
40964;DHT22;26693;51.168;4.138;2022-08-05T05:35:15;21.20;99.90
40964;DHT22;26693;51.168;4.138;2022-08-05T05:36:18;21.10;99.90
40964;DHT22;26693;51.168;4.138;2022-08-05T05:37:19;21.10;99.90
40964;DHT22;26693;51.168;4.138;2022-08-05T05:38:19;21.00;99.90
40964;DHT22;26693;51.168;4.138;2022-08-05T05:39:20;20.70;99.90
40964;DHT22;26693;51.168;4.138;2022-08-05T05:40:21;20.60;99.90
40964;DHT22;26693;51.168;4.138;2022-08-05T05:41:21;20.80;99.90
40964;DHT22;26693;51.168;4.138;2022-08-05T05:42:22;20.90;99.90
40964;DHT22;26693;51.168;4.138;2022-08-05T05:43:23;21.00;99.90
40964;DHT22;26693;51.168;4.138;2022-08-05T05:44:23;21.00;99.90
40964;DHT22;26693;51.168;4.138;2022-08-05T05:45:24;20.90;99.90
40964;DHT22;26693;51.168;4.138;2022-08-05T05:46:24;20.70;99.90
40964;DHT22;26693;51.168;4.138;2022-08-05T05:47:25;20.60;99.90
40964;DHT22;26693;51.168;4.138;2022-08-05T05:48:25;20.70;99.90
40964;DHT22;26693;51.168;4.138;2022-08-05T05:49:26;20.80;99.90
40964;DHT22;26693;51.168;4.138;2022-08-05T05:50:27;20.80;99.90
40964;DHT22;26693;51.168;4.138;2022-08-05T05:51:27;20.90;99.90
40964;DHT22;26693;51.168;4.138;2022-08-05T05:52:28;21.00;99.90
40964;DHT22;26693;51.168;4.138;2022-08-05T05:53:28;21.10;99.90
40964;DHT22;26693;51.168;4.138;2022-08-05T05:54:29;21.10;99.90
40964;DHT22;26693;51.168;4.138;2022-08-05T05:55:29;21.20;99.90
40964;DHT22;26693;51.168;4.138;2022-08-05T05:56:30;21.20;99.90
40964;DHT22;26693;51.168;4.138;2022-08-05T05:57:31;21.10;99.90
40964;DHT22;26693;51.168;4.138;2022-08-05T05:58:31;21.10;99.90
40964;DHT22;26693;51.168;4.138;2022-08-05T05:59:32;21.20;99.90
40964;DHT22;26693;51.168;4.138;2022-08-05T06:00:32;21.20;99.90
40964;DHT22;26693;51.168;4.138;2022-08-05T06:01:33;21.20;99.90
40964;DHT22;26693;51.168;4.138;2022-08-05T06:02:34;21.20;99.90
40964;DHT22;26693;51.168;4.138;2022-08-05T06:03:35;20.60;99.90
40964;DHT22;26693;51.168;4.138;2022-08-05T06:04:35;20.50;99.90
40964;DHT22;26693;51.168;4.138;2022-08-05T06:05:36;20.50;99.90
40964;DHT22;26693;51.168;4.138;2022-08-05T06:06:37;20.40;99.90
40964;DHT22;26693;51.168;4.138;2022-08-05T06:07:37;20.30;99.90
40964;DHT22;26693;51.168;4.138;2022-08-05T06:08:38;20.30;99.90
40964;DHT22;26693;51.168;4.138;2022-08-05T06:09:39;20.50;99.90
40964;DHT22;26693;51.168;4.138;2022-08-05T06:10:39;20.40;99.90
40964;DHT22;26693;51.168;4.138;2022-08-05T06:11:40;20.50;99.90
40964;DHT22;26693;51.168;4.138;2022-08-05T06:12:40;20.80;99.90
40964;DHT22;26693;51.168;4.138;2022-08-05T06:13:41;21.00;99.90
40964;DHT22;26693;51.168;4.138;2022-08-05T06:14:42;20.90;99.90
40964;DHT22;26693;51.168;4.138;2022-08-05T06:15:43;21.00;99.90
40964;DHT22;26693;51.168;4.138;2022-08-05T06:16:44;21.10;99.90
40964;DHT22;26693;51.168;4.138;2022-08-05T06:17:44;20.90;99.90
40964;DHT22;26693;51.168;4.138;2022-08-05T06:18:45;21.00;99.90
40964;DHT22;26693;51.168;4.138;2022-08-05T06:19:45;21.00;99.90
40964;DHT22;26693;51.168;4.138;2022-08-05T06:20:46;21.20;99.90
40964;DHT22;26693;51.168;4.138;2022-08-05T06:21:46;21.30;99.90
40964;DHT22;26693;51.168;4.138;2022-08-05T06:22:47;21.10;99.90
40964;DHT22;26693;51.168;4.138;2022-08-05T06:23:48;21.30;99.90
40964;DHT22;26693;51.168;4.138;2022-08-05T06:24:48;21.40;99.90
40964;DHT22;26693;51.168;4.138;2022-08-05T06:25:49;21.40;99.90
40964;DHT22;26693;51.168;4.138;2022-08-05T06:26:50;21.50;99.90
40964;DHT22;26693;51.168;4.138;2022-08-05T06:27:51;21.50;99.90
40964;DHT22;26693;51.168;4.138;2022-08-05T06:28:51;21.50;99.90
40964;DHT22;26693;51.168;4.138;2022-08-05T06:29:52;21.50;99.90
40964;DHT22;26693;51.168;4.138;2022-08-05T06:30:52;21.50;99.90
40964;DHT22;26693;51.168;4.138;2022-08-05T06:31:53;21.50;99.90
40964;DHT22;26693;51.168;4.138;2022-08-05T06:32:54;21.50;99.90
40964;DHT22;26693;51.168;4.138;2022-08-05T06:33:55;21.70;99.90
40964;DHT22;26693;51.168;4.138;2022-08-05T06:34:56;21.70;99.90
40964;DHT22;26693;51.168;4.138;2022-08-05T06:35:57;21.70;99.90
40964;DHT22;26693;51.168;4.138;2022-08-05T06:36:58;21.70;99.90
40964;DHT22;26693;51.168;4.138;2022-08-05T06:37:58;21.70;99.90
40964;DHT22;26693;51.168;4.138;2022-08-05T06:38:59;21.60;99.90
40964;DHT22;26693;51.168;4.138;2022-08-05T06:39:59;21.60;99.90
40964;DHT22;26693;51.168;4.138;2022-08-05T06:41:00;21.50;99.90
40964;DHT22;26693;51.168;4.138;2022-08-05T06:42:01;21.50;99.90
40964;DHT22;26693;51.168;4.138;2022-08-05T06:43:01;21.40;99.90